Glendive, Montana
Current Conditions -  °F | °C
As of 6:35 AM on Thursday 30 Oct 2014 (Local Time) from KGDV Reporting Station
Overcast Overcast  
Wind Chill: 29°   Ceiling: 900
Heat Index: 36°   Visibility: 10mi
Dew Point: 32°   Wind: 8mph
Humidity: 87%   Direction: 10°N
Pressure: 30.28"   Gusts: NA
Location:  47.11°N, 104.71°W
Report Text: KGDV 301235Z AUTO 01007KT 10SM OVC009 02/00 A3028 RMK AO1
Loading
Personal Weather Stations






























Interactive Weather Map
Tropical Storm Tracking
New forecast layout! Learn more

10-Day Weather Forecast

Advertisements
Track Severe Weather on mobile